createdAt,value
2018-05-21T00:02:24.390Z,16.20
2018-05-21T00:04:53.266Z,16.20
2018-05-21T00:07:22.102Z,16.10
2018-05-21T00:09:51.710Z,16.00
2018-05-21T00:12:20.993Z,16.00
2018-05-21T00:14:50.219Z,16.00
2018-05-21T00:17:19.922Z,15.90
2018-05-21T00:19:49.656Z,15.90
2018-05-21T00:22:18.519Z,15.90
2018-05-21T00:24:47.428Z,15.80
2018-05-21T00:27:16.849Z,15.80
2018-05-21T00:29:46.046Z,15.80
2018-05-21T00:32:15.272Z,15.70
2018-05-21T00:34:44.166Z,15.70
2018-05-21T00:37:13.009Z,15.70
2018-05-21T00:39:41.852Z,15.70
2018-05-21T00:42:10.718Z,15.60
2018-05-21T00:44:40.347Z,15.50
2018-05-21T00:47:09.198Z,15.50
2018-05-21T00:49:38.085Z,15.40
2018-05-21T00:52:06.943Z,15.40
2018-05-21T00:54:35.785Z,15.30
2018-05-21T00:57:04.998Z,15.30
2018-05-21T00:59:34.246Z,15.20
2018-05-21T01:02:03.141Z,15.20
2018-05-21T01:04:32.035Z,15.20
2018-05-21T01:07:01.282Z,15.10
2018-05-21T01:09:30.134Z,15.00
2018-05-21T01:11:58.998Z,15.00
2018-05-21T01:14:28.099Z,14.90
2018-05-21T01:16:58.102Z,14.80
2018-05-21T01:19:27.253Z,14.80
2018-05-21T01:21:56.181Z,14.80
2018-05-21T01:24:25.426Z,14.70
2018-05-21T01:26:55.078Z,14.70
2018-05-21T01:29:23.957Z,14.70
2018-05-21T01:31:52.774Z,14.70
2018-05-21T01:34:22.015Z,14.60
2018-05-21T01:36:51.278Z,14.60
2018-05-21T01:39:20.752Z,14.60
2018-05-21T01:41:49.668Z,14.60
2018-05-21T01:44:18.655Z,14.60
2018-05-21T01:46:47.566Z,14.50
2018-05-21T01:49:16.459Z,14.50
2018-05-21T01:51:45.390Z,14.50
2018-05-21T01:54:14.285Z,14.40
2018-05-21T01:56:43.241Z,14.40
2018-05-21T01:59:12.236Z,14.40
2018-05-21T02:01:41.545Z,14.40
2018-05-21T02:04:10.893Z,14.40
2018-05-21T02:06:40.713Z,14.30
2018-05-21T02:09:10.434Z,14.20
2018-05-21T02:11:40.175Z,14.10
2018-05-21T02:14:09.138Z,14.10
2018-05-21T02:16:38.833Z,14.00
2018-05-21T02:19:07.801Z,14.00
2018-05-21T02:21:37.633Z,13.90
2018-05-21T02:24:07.408Z,13.90
2018-05-21T02:26:36.803Z,13.80
2018-05-21T02:29:05.863Z,13.80
2018-05-21T02:31:34.797Z,13.80
2018-05-21T02:34:03.781Z,13.80
2018-05-21T02:36:32.852Z,13.70
2018-05-21T02:39:01.849Z,13.70
2018-05-21T02:41:30.817Z,13.60
2018-05-21T02:43:59.834Z,13.70
2018-05-21T02:46:28.944Z,13.60
2018-05-21T02:48:57.990Z,13.60
2018-05-21T02:51:26.997Z,13.60
2018-05-21T02:53:55.967Z,13.60
2018-05-21T02:56:25.679Z,13.50
2018-05-21T02:58:55.459Z,13.50
2018-05-21T03:01:24.612Z,13.50
2018-05-21T03:03:53.583Z,13.50
2018-05-21T03:06:23.356Z,13.50
2018-05-21T03:08:52.340Z,13.50
2018-05-21T03:11:21.335Z,13.50
2018-05-21T03:13:50.321Z,13.50
2018-05-21T03:16:19.309Z,13.60
2018-05-21T03:18:49.079Z,13.60
2018-05-21T03:21:18.040Z,13.60
2018-05-21T03:23:47.051Z,13.70
2018-05-21T03:26:16.149Z,13.70
2018-05-21T03:28:45.082Z,13.80
2018-05-21T03:31:14.072Z,13.80
2018-05-21T03:33:43.064Z,13.90
2018-05-21T03:36:12.014Z,13.90
2018-05-21T03:38:41.130Z,13.90
2018-05-21T03:41:10.862Z,14.00
2018-05-21T03:43:41.036Z,14.00
2018-05-21T03:46:10.757Z,14.00
2018-05-21T03:48:40.916Z,14.00
2018-05-21T03:51:09.869Z,14.00
2018-05-21T03:53:40.264Z,14.00
2018-05-21T03:56:09.605Z,14.00
2018-05-21T03:58:50.660Z,14.00
2018-05-21T04:01:32.054Z,14.00
2018-05-21T04:04:03.144Z,14.00
2018-05-21T04:06:32.323Z,14.00
2018-05-21T04:09:01.286Z,14.00
2018-05-21T04:11:30.245Z,14.00
2018-05-21T04:13:59.215Z,14.00
2018-05-21T04:16:28.175Z,14.10
2018-05-21T04:18:58.203Z,14.10
2018-05-21T04:21:27.793Z,14.10
2018-05-21T04:23:56.646Z,14.10
2018-05-21T04:26:25.610Z,14.20
2018-05-21T04:28:54.474Z,14.20
2018-05-21T04:31:23.386Z,14.30
2018-05-21T04:33:52.264Z,14.30
2018-05-21T04:36:21.108Z,14.40
2018-05-21T04:38:49.987Z,14.40
2018-05-21T04:41:19.112Z,14.50
2018-05-21T04:43:47.931Z,14.50
2018-05-21T04:46:16.765Z,14.60
2018-05-21T04:48:45.671Z,14.70
2018-05-21T04:51:15.291Z,14.80
2018-05-21T04:53:44.563Z,14.80
2018-05-21T04:56:13.787Z,14.90
2018-05-21T04:58:44.269Z,15.00
2018-05-21T05:01:13.122Z,15.00
2018-05-21T05:03:42.202Z,15.10
2018-05-21T05:06:11.015Z,15.10
2018-05-21T05:08:40.635Z,15.20
2018-05-21T05:11:10.443Z,15.30
2018-05-21T05:13:39.630Z,15.30
2018-05-21T05:16:09.035Z,15.40
2018-05-21T05:18:37.858Z,15.50
2018-05-21T05:21:06.769Z,15.50
2018-05-21T05:23:35.591Z,15.60
2018-05-21T05:26:05.460Z,15.70
2018-05-21T05:28:34.366Z,15.70
2018-05-21T05:31:03.344Z,15.80
2018-05-21T05:33:33.054Z,15.90
2018-05-21T05:36:02.274Z,15.90
2018-05-21T05:38:31.799Z,15.90
2018-05-21T05:41:00.721Z,16.00
2018-05-21T05:43:29.623Z,16.00
2018-05-21T05:45:59.343Z,16.20
2018-05-21T05:48:28.293Z,16.10
2018-05-21T05:50:57.506Z,16.20
2018-05-21T05:53:26.561Z,16.30
2018-05-21T05:55:56.335Z,16.40
2018-05-21T05:58:26.022Z,16.50
2018-05-21T06:00:55.073Z,16.40
2018-05-21T06:03:24.174Z,16.50
2018-05-21T06:05:53.111Z,16.60
2018-05-21T06:08:22.035Z,16.70
2018-05-21T06:10:51.502Z,16.70
2018-05-21T06:13:20.430Z,16.80
2018-05-21T06:15:49.395Z,16.90
2018-05-21T06:18:18.356Z,17.00
2018-05-21T06:20:47.299Z,17.10
2018-05-21T06:23:16.232Z,17.20
2018-05-21T06:25:45.297Z,17.30
2018-05-21T06:28:14.224Z,17.40
2018-05-21T06:30:43.212Z,17.50
2018-05-21T06:33:12.120Z,17.60
2018-05-21T06:35:41.125Z,17.70
2018-05-21T06:38:10.115Z,17.70
2018-05-21T06:40:39.092Z,17.80
2018-05-21T06:43:07.915Z,17.90
2018-05-21T06:45:37.546Z,18.10
2018-05-21T06:48:06.382Z,18.00
2018-05-21T06:50:35.206Z,18.10
2018-05-21T06:53:05.224Z,18.30
2018-05-21T06:55:35.287Z,18.40
2018-05-21T06:58:04.622Z,18.40
2018-05-21T07:00:33.486Z,18.50
2018-05-21T07:03:03.091Z,18.70
2018-05-21T07:05:31.933Z,18.70
2018-05-21T07:08:00.832Z,18.80
2018-05-21T07:10:29.663Z,18.90
2018-05-21T07:12:58.778Z,19.00
2018-05-21T07:15:28.389Z,19.20
2018-05-21T07:17:57.978Z,19.30
2018-05-21T07:20:26.831Z,19.30
2018-05-21T07:22:55.709Z,19.40
2018-05-21T07:25:24.534Z,19.50
2018-05-21T07:27:53.355Z,19.70
2018-05-21T07:30:22.221Z,19.80
2018-05-21T07:32:51.106Z,20.00
2018-05-21T07:35:19.937Z,20.10
2018-05-21T07:37:48.813Z,20.20
2018-05-21T07:40:17.900Z,20.20
2018-05-21T07:42:46.772Z,20.20
2018-05-21T07:45:15.659Z,20.20
2018-05-21T07:47:44.842Z,20.30
2018-05-21T07:50:13.679Z,20.40
2018-05-21T07:52:42.536Z,20.40
2018-05-21T07:55:12.151Z,20.60
2018-05-21T07:57:41.780Z,20.70
2018-05-21T08:00:10.694Z,20.60
2018-05-21T08:02:39.530Z,20.70
2018-05-21T08:05:08.389Z,20.80
2018-05-21T08:07:37.265Z,20.90
2018-05-21T08:10:06.162Z,21.00
2018-05-21T08:12:35.001Z,21.10
2018-05-21T08:15:04.330Z,21.20
2018-05-21T08:17:33.942Z,21.40
2018-05-21T08:20:03.016Z,21.30
2018-05-21T08:22:32.247Z,21.50
2018-05-21T08:25:01.862Z,21.80
2018-05-21T08:27:31.458Z,21.90
2018-05-21T08:30:00.826Z,22.00
2018-05-21T08:32:29.722Z,22.10
2018-05-21T08:34:58.631Z,22.20
2018-05-21T08:37:27.502Z,22.30
2018-05-21T08:39:56.460Z,22.40
2018-05-21T08:42:26.049Z,22.70
2018-05-21T08:44:54.892Z,22.60
2018-05-21T08:47:23.753Z,22.70
2018-05-21T08:49:53.421Z,22.80
2018-05-21T08:52:22.308Z,22.80
2018-05-21T08:54:51.195Z,22.90
2018-05-21T08:57:20.024Z,22.90
2018-05-21T08:59:49.234Z,23.00
2018-05-21T09:02:18.082Z,23.10
2018-05-21T09:04:46.943Z,23.20
2018-05-21T09:07:15.814Z,23.40
2018-05-21T09:09:44.699Z,23.50
2018-05-21T09:12:13.582Z,23.60
2018-05-21T09:14:43.175Z,23.70
2018-05-21T09:17:12.069Z,23.70
2018-05-21T09:19:40.906Z,23.90
2018-05-21T09:22:09.750Z,23.90
2018-05-21T09:24:38.569Z,24.00
2018-05-21T09:27:07.442Z,24.00
2018-05-21T09:29:36.278Z,23.90
2018-05-21T09:32:05.159Z,23.90
2018-05-21T09:34:35.055Z,23.80
2018-05-21T09:37:03.938Z,23.80
2018-05-21T09:39:32.782Z,23.90
2018-05-21T09:42:01.706Z,24.00
2018-05-21T09:44:31.314Z,24.20
2018-05-21T09:47:01.023Z,24.20
2018-05-21T09:49:30.922Z,24.20
2018-05-21T09:51:59.816Z,24.20
2018-05-21T09:54:29.010Z,24.20
2018-05-21T09:56:58.322Z,24.20
2018-05-21T09:59:27.173Z,24.20
2018-05-21T10:01:56.110Z,24.30
2018-05-21T10:04:24.974Z,24.40
2018-05-21T10:06:53.838Z,24.50
2018-05-21T10:09:22.962Z,24.70
2018-05-21T10:11:51.797Z,24.80
2018-05-21T10:14:20.867Z,24.90
2018-05-21T10:16:49.809Z,25.00
2018-05-21T10:19:20.035Z,25.10
2018-05-21T10:21:49.429Z,25.10
2018-05-21T10:24:18.421Z,25.20
2018-05-21T10:26:48.418Z,25.20
2018-05-21T10:29:17.551Z,25.30
2018-05-21T10:31:47.736Z,25.50
2018-05-21T10:34:17.079Z,25.50
2018-05-21T10:36:46.812Z,25.60
2018-05-21T10:39:16.326Z,25.60
2018-05-21T10:41:45.538Z,25.60
2018-05-21T10:44:14.478Z,25.70
2018-05-21T10:46:44.881Z,25.70
2018-05-21T10:49:13.831Z,25.70
2018-05-21T10:51:44.185Z,25.80
2018-05-21T10:54:13.153Z,25.80
2018-05-21T10:56:42.069Z,25.90
2018-05-21T10:59:11.046Z,26.00
2018-05-21T11:01:40.768Z,25.90
2018-05-21T11:04:09.748Z,25.90
2018-05-21T11:06:38.673Z,25.90
2018-05-21T11:09:07.607Z,25.80
2018-05-21T11:11:36.609Z,25.60
2018-05-21T11:14:05.916Z,25.60
2018-05-21T11:16:34.956Z,25.40
2018-05-21T11:19:04.774Z,25.10
2018-05-21T11:21:34.682Z,25.10
2018-05-21T11:24:03.604Z,25.20
2018-05-21T11:26:32.595Z,25.20
2018-05-21T11:29:01.560Z,25.40
2018-05-21T11:31:30.515Z,25.50
2018-05-21T11:33:59.465Z,25.60
2018-05-21T11:36:29.175Z,25.90
2018-05-21T11:38:58.942Z,26.00
2018-05-21T11:41:27.958Z,26.00
2018-05-21T11:43:57.339Z,26.10
2018-05-21T11:46:28.092Z,26.30
2018-05-21T11:48:57.015Z,26.30
2018-05-21T11:51:25.949Z,26.50
2018-05-21T11:53:54.875Z,26.50
2018-05-21T11:56:23.804Z,26.70
2018-05-21T11:58:52.760Z,26.80
2018-05-21T12:01:21.765Z,26.80
2018-05-21T12:03:50.781Z,26.80
2018-05-21T12:06:20.738Z,26.90
2018-05-21T12:08:50.497Z,27.20
2018-05-21T12:11:19.412Z,27.20
2018-05-21T12:13:49.191Z,27.50
2018-05-21T12:16:18.144Z,27.40
2018-05-21T12:18:47.091Z,27.40
2018-05-21T12:21:16.075Z,27.20
2018-05-21T12:23:45.961Z,27.20
2018-05-21T12:26:16.602Z,27.30
2018-05-21T12:28:46.493Z,27.50
2018-05-21T12:31:15.752Z,27.50
2018-05-21T12:33:44.760Z,27.70
2018-05-21T12:36:13.847Z,27.80
2018-05-21T12:38:42.849Z,27.90
2018-05-21T12:41:14.082Z,27.90
2018-05-21T12:43:43.390Z,27.90
2018-05-21T12:46:12.349Z,27.80
2018-05-21T12:48:41.308Z,27.60
2018-05-21T12:51:10.305Z,27.50
2018-05-21T12:53:39.294Z,27.40
2018-05-21T12:56:08.297Z,27.30
2018-05-21T12:58:37.257Z,27.30
2018-05-21T13:01:07.063Z,27.40
2018-05-21T13:03:36.748Z,27.30
2018-05-21T13:06:06.233Z,27.30
2018-05-21T13:08:35.188Z,27.40
2018-05-21T13:11:04.910Z,27.40
2018-05-21T13:13:34.237Z,27.50
2018-05-21T13:16:03.166Z,27.60
2018-05-21T13:18:32.499Z,27.60
2018-05-21T13:21:01.448Z,27.60
2018-05-21T13:23:30.378Z,27.70
2018-05-21T13:25:59.346Z,27.90
2018-05-21T13:28:30.325Z,27.50
2018-05-21T13:30:59.426Z,27.50
2018-05-21T13:33:29.187Z,27.30
2018-05-21T13:35:58.155Z,27.20
2018-05-21T13:38:27.633Z,27.00
2018-05-21T13:40:57.111Z,26.80
2018-05-21T13:43:26.117Z,26.60
2018-05-21T13:45:55.338Z,26.50
2018-05-21T13:48:24.204Z,26.60
2018-05-21T13:50:53.123Z,26.70
2018-05-21T13:53:21.974Z,26.80
2018-05-21T13:55:51.210Z,26.90
2018-05-21T13:58:20.063Z,27.10
2018-05-21T14:00:49.410Z,27.20
2018-05-21T14:03:18.238Z,27.20
2018-05-21T14:05:47.140Z,27.30
2018-05-21T14:08:16.397Z,27.40
2018-05-21T14:10:45.225Z,27.50
2018-05-21T14:13:14.126Z,27.70
2018-05-21T14:15:42.979Z,27.70
2018-05-21T14:18:11.817Z,27.70
2018-05-21T14:20:40.972Z,27.70
2018-05-21T14:23:09.875Z,27.80
2018-05-21T14:25:38.742Z,27.90
2018-05-21T14:28:07.615Z,27.90
2018-05-21T14:30:37.854Z,28.00
2018-05-21T14:33:07.505Z,27.80
2018-05-21T14:35:36.405Z,27.80
2018-05-21T14:38:05.738Z,27.60
2018-05-21T14:40:34.582Z,27.60
2018-05-21T14:43:03.476Z,27.70
2018-05-21T14:45:32.387Z,28.00
2018-05-21T14:48:01.305Z,28.20
2018-05-21T14:50:30.182Z,28.30
2018-05-21T14:52:59.125Z,28.40
2018-05-21T14:55:28.769Z,28.40
2018-05-21T14:57:57.666Z,28.40
2018-05-21T15:00:26.544Z,28.30
2018-05-21T15:02:55.828Z,28.40
2018-05-21T15:05:25.461Z,28.60
2018-05-21T15:07:54.375Z,28.60
2018-05-21T15:10:23.286Z,28.70
2018-05-21T15:12:52.162Z,28.70
2018-05-21T15:15:21.509Z,28.60
2018-05-21T15:17:50.407Z,28.60
2018-05-21T15:20:19.325Z,28.50
2018-05-21T15:22:49.019Z,28.40
2018-05-21T15:25:18.143Z,28.40
2018-05-21T15:27:47.841Z,28.00
2018-05-21T15:30:17.485Z,27.80
2018-05-21T15:32:46.386Z,27.80
2018-05-21T15:35:15.371Z,27.60
2018-05-21T15:37:44.298Z,27.40
2018-05-21T15:40:13.173Z,27.20
2018-05-21T15:42:42.137Z,27.00
2018-05-21T15:45:11.058Z,26.90
2018-05-21T15:47:40.249Z,26.90
2018-05-21T15:50:09.951Z,26.90
2018-05-21T15:52:40.076Z,26.90
2018-05-21T15:55:09.691Z,27.30
2018-05-21T15:57:39.397Z,27.50
2018-05-21T16:00:09.053Z,27.70
2018-05-21T16:02:37.881Z,27.70
2018-05-21T16:05:06.754Z,27.80
2018-05-21T16:07:35.596Z,27.90
2018-05-21T16:10:05.231Z,28.20
2018-05-21T16:12:34.506Z,28.20
2018-05-21T16:15:03.342Z,28.30
2018-05-21T16:17:32.229Z,28.40
2018-05-21T16:20:02.223Z,28.30
2018-05-21T16:22:31.871Z,28.30
2018-05-21T16:25:00.758Z,28.30
2018-05-21T16:27:29.686Z,28.20
2018-05-21T16:29:58.649Z,28.20
2018-05-21T16:32:28.600Z,28.20
2018-05-21T16:34:58.377Z,28.20
2018-05-21T16:37:28.336Z,28.20
2018-05-21T16:39:57.942Z,28.20
2018-05-21T16:42:26.899Z,28.20
2018-05-21T16:44:56.040Z,28.20
2018-05-21T16:47:25.315Z,28.30
2018-05-21T16:49:55.008Z,28.40
2018-05-21T16:52:23.959Z,28.40
2018-05-21T16:54:52.893Z,28.50
2018-05-21T16:57:22.630Z,28.50
2018-05-21T16:59:51.919Z,28.50
2018-05-21T17:02:21.771Z,28.30
2018-05-21T17:04:50.830Z,28.30
2018-05-21T17:07:20.508Z,28.30
2018-05-21T17:09:49.592Z,28.20
2018-05-21T17:12:18.903Z,28.00
2018-05-21T17:14:48.852Z,27.60
2018-05-21T17:17:18.614Z,27.50
2018-05-21T17:19:47.571Z,27.50
2018-05-21T17:22:16.835Z,27.30
2018-05-21T17:24:46.085Z,27.20
2018-05-21T17:27:15.760Z,27.00
2018-05-21T17:29:44.668Z,26.80
2018-05-21T17:32:13.590Z,26.60
2018-05-21T17:34:42.517Z,26.50
2018-05-21T17:37:11.378Z,26.30
2018-05-21T17:39:41.134Z,26.10
2018-05-21T17:42:10.002Z,26.10
2018-05-21T17:44:39.146Z,26.00
2018-05-21T17:47:08.099Z,25.90
2018-05-21T17:49:36.987Z,25.70
2018-05-21T17:52:05.885Z,25.60
2018-05-21T17:54:35.479Z,25.30
2018-05-21T17:57:05.142Z,25.10
2018-05-21T17:59:33.994Z,25.10
2018-05-21T18:02:04.090Z,24.90
2018-05-21T18:04:33.320Z,24.90
2018-05-21T18:07:02.186Z,24.80
2018-05-21T18:09:31.289Z,24.60
2018-05-21T18:12:00.538Z,24.50
2018-05-21T18:14:29.857Z,24.40
2018-05-21T18:16:59.171Z,24.30
2018-05-21T18:19:27.994Z,24.10
2018-05-21T18:21:56.831Z,23.90
2018-05-21T18:24:25.695Z,23.70
2018-05-21T18:26:55.294Z,23.40
2018-05-21T18:29:24.486Z,23.40
2018-05-21T18:31:54.124Z,23.10
2018-05-21T18:34:22.985Z,23.10
2018-05-21T18:36:52.208Z,23.00
2018-05-21T18:39:21.083Z,22.90
2018-05-21T18:41:49.894Z,22.70
2018-05-21T18:44:18.830Z,22.60
2018-05-21T18:46:47.731Z,22.40
2018-05-21T18:49:16.571Z,22.20
2018-05-21T18:51:45.474Z,22.10
2018-05-21T18:54:14.309Z,22.00
2018-05-21T18:56:43.208Z,21.80
2018-05-21T18:59:12.356Z,21.70
2018-05-21T19:01:41.165Z,21.70
2018-05-21T19:04:10.054Z,21.50
2018-05-21T19:06:38.921Z,21.40
2018-05-21T19:09:07.752Z,21.20
2018-05-21T19:11:36.869Z,21.10
2018-05-21T19:14:06.202Z,21.00
2018-05-21T19:16:35.030Z,21.00
2018-05-21T19:19:04.164Z,20.80
2018-05-21T19:21:33.812Z,20.60
2018-05-21T19:24:02.724Z,20.60
2018-05-21T19:26:31.712Z,20.50
2018-05-21T19:29:00.597Z,20.40
2018-05-21T19:31:29.474Z,20.30
2018-05-21T19:33:58.367Z,20.30
2018-05-21T19:36:27.305Z,20.20
2018-05-21T19:38:56.240Z,20.20
2018-05-21T19:41:25.894Z,20.00
2018-05-21T19:43:54.828Z,20.00
2018-05-21T19:46:23.755Z,19.90
2018-05-21T19:48:52.612Z,19.80
2018-05-21T19:51:21.488Z,19.70
2018-05-21T19:53:50.463Z,19.60
2018-05-21T19:56:19.312Z,19.60
2018-05-21T19:58:48.487Z,19.50
2018-05-21T20:01:17.347Z,19.40
2018-05-21T20:03:46.228Z,19.40
2018-05-21T20:06:15.449Z,19.30
2018-05-21T20:08:44.266Z,19.20
2018-05-21T20:11:13.163Z,19.10
2018-05-21T20:13:42.111Z,19.10
2018-05-21T20:16:11.093Z,19.00
2018-05-21T20:18:41.086Z,18.90
2018-05-21T20:21:11.552Z,18.80
2018-05-21T20:23:41.600Z,18.70
2018-05-21T20:26:10.804Z,18.70
2018-05-21T20:28:40.198Z,18.60
2018-05-21T20:31:10.366Z,18.50
2018-05-21T20:33:39.371Z,18.50
2018-05-21T20:36:08.315Z,18.40
2018-05-21T20:38:37.265Z,18.30
2018-05-21T20:41:07.124Z,18.20
2018-05-21T20:43:36.111Z,18.10
2018-05-21T20:46:05.307Z,18.10
2018-05-21T20:48:35.809Z,17.90
2018-05-21T20:51:05.042Z,17.90
2018-05-21T20:53:34.823Z,17.80
2018-05-21T20:56:03.779Z,17.80
2018-05-21T20:58:32.731Z,17.70
2018-05-21T21:01:01.672Z,17.60
2018-05-21T21:03:30.962Z,17.60
2018-05-21T21:06:00.280Z,17.50
2018-05-21T21:08:29.285Z,17.50
2018-05-21T21:10:58.214Z,17.40
2018-05-21T21:13:27.536Z,17.40
2018-05-21T21:15:56.456Z,17.20
2018-05-21T21:18:25.367Z,17.20
2018-05-21T21:20:54.379Z,17.10
2018-05-21T21:23:23.330Z,17.00
2018-05-21T21:25:53.047Z,16.90
2018-05-21T21:28:23.176Z,16.80
2018-05-21T21:30:52.886Z,16.70
2018-05-21T21:33:22.074Z,16.70
2018-05-21T21:35:50.986Z,16.60
2018-05-21T21:38:20.735Z,16.40
2018-05-21T21:40:49.987Z,16.40
2018-05-21T21:43:19.367Z,16.30
2018-05-21T21:45:48.314Z,16.30
2018-05-21T21:48:18.017Z,16.10
2018-05-21T21:50:47.550Z,16.10
2018-05-21T21:53:17.355Z,16.00
2018-05-21T21:55:47.018Z,15.90
2018-05-21T21:58:16.059Z,15.90
2018-05-21T22:00:45.576Z,15.80
2018-05-21T22:03:14.907Z,15.70
2018-05-21T22:05:44.369Z,15.70
2018-05-21T22:08:14.119Z,15.50
2018-05-21T22:10:43.073Z,15.50
2018-05-21T22:13:12.055Z,15.40
2018-05-21T22:15:41.095Z,15.30
2018-05-21T22:18:10.042Z,15.20
2018-05-21T22:20:38.948Z,15.20
2018-05-21T22:23:07.978Z,15.10
2018-05-21T22:25:37.743Z,14.90
2018-05-21T22:28:06.698Z,14.90
2018-05-21T22:30:37.770Z,14.80
2018-05-21T22:33:06.742Z,14.70
2018-05-21T22:35:35.766Z,14.60
2018-05-21T22:38:04.835Z,14.50
2018-05-21T22:40:34.548Z,14.40
2018-05-21T22:43:04.893Z,14.30
2018-05-21T22:45:33.779Z,14.30
2018-05-21T22:48:02.652Z,14.30
2018-05-21T22:50:32.366Z,14.20
2018-05-21T22:53:01.674Z,14.10
2018-05-21T22:55:31.369Z,14.00
2018-05-21T22:58:01.477Z,13.90
2018-05-21T23:00:30.407Z,13.90
2018-05-21T23:03:00.248Z,13.80
2018-05-21T23:05:29.258Z,13.70
2018-05-21T23:07:58.205Z,13.70
2018-05-21T23:10:27.886Z,13.60
2018-05-21T23:12:57.239Z,13.60
2018-05-21T23:15:26.909Z,13.40
2018-05-21T23:17:55.822Z,13.50
2018-05-21T23:20:24.828Z,13.40
2018-05-21T23:22:53.741Z,13.40
2018-05-21T23:25:23.141Z,13.30
2018-05-21T23:27:52.871Z,13.20
2018-05-21T23:30:21.786Z,13.20
2018-05-21T23:32:50.790Z,13.10
2018-05-21T23:35:19.777Z,13.10
2018-05-21T23:37:48.704Z,13.00
2018-05-21T23:40:17.628Z,13.00
2018-05-21T23:42:47.361Z,12.90
2018-05-21T23:45:16.567Z,12.80
2018-05-21T23:47:45.504Z,12.80
2018-05-21T23:50:16.008Z,12.60
2018-05-21T23:52:45.026Z,12.60
2018-05-21T23:55:13.944Z,12.60
2018-05-21T23:57:42.902Z,12.50
